createdAt,value
2019-03-30T00:00:41.514Z,6.18
2019-03-30T00:03:07.822Z,6.17
2019-03-30T00:05:34.021Z,6.15
2019-03-30T00:08:00.356Z,6.12
2019-03-30T00:10:26.610Z,6.10
2019-03-30T00:12:52.811Z,6.03
2019-03-30T00:15:18.916Z,5.98
2019-03-30T00:17:45.587Z,5.90
2019-03-30T00:20:12.113Z,5.83
2019-03-30T00:22:38.403Z,5.83
2019-03-30T00:25:05.408Z,5.80
2019-03-30T00:27:31.499Z,5.79
2019-03-30T00:29:57.651Z,5.84
2019-03-30T00:32:23.830Z,5.80
2019-03-30T00:34:50.017Z,5.79
2019-03-30T00:37:16.166Z,5.76
2019-03-30T00:39:42.442Z,5.75
2019-03-30T00:42:08.627Z,5.76
2019-03-30T00:44:34.838Z,5.74
2019-03-30T00:47:00.954Z,5.73
2019-03-30T00:49:27.180Z,5.72
2019-03-30T00:51:53.286Z,5.69
2019-03-30T00:54:19.507Z,5.66
2019-03-30T00:56:45.606Z,5.66
2019-03-30T00:59:11.989Z,5.68
2019-03-30T01:01:38.444Z,5.67
2019-03-30T01:04:04.835Z,5.60
2019-03-30T01:06:31.094Z,5.60
2019-03-30T01:08:57.452Z,5.58
2019-03-30T01:11:23.781Z,5.60
2019-03-30T01:13:49.896Z,5.61
2019-03-30T01:16:16.234Z,5.62
2019-03-30T01:18:42.652Z,5.59
2019-03-30T01:21:08.871Z,5.56
2019-03-30T01:23:35.117Z,5.53
2019-03-30T01:26:01.374Z,5.49
2019-03-30T01:28:27.584Z,5.45
2019-03-30T01:30:53.754Z,5.43
2019-03-30T01:33:19.970Z,5.42
2019-03-30T01:35:46.072Z,5.42
2019-03-30T01:38:12.458Z,5.43
2019-03-30T01:40:38.728Z,5.42
2019-03-30T01:43:05.160Z,5.37
2019-03-30T01:45:31.317Z,5.31
2019-03-30T01:47:57.578Z,5.24
2019-03-30T01:50:23.742Z,5.19
2019-03-30T01:52:49.934Z,5.19
2019-03-30T01:55:16.175Z,5.18
2019-03-30T01:57:42.335Z,5.13
2019-03-30T02:00:10.023Z,5.12
2019-03-30T02:02:36.287Z,5.07
2019-03-30T02:05:04.609Z,5.00
2019-03-30T02:07:30.802Z,4.98
2019-03-30T02:09:56.986Z,4.97
2019-03-30T02:12:23.133Z,4.96
2019-03-30T02:14:49.394Z,4.94
2019-03-30T02:17:15.521Z,4.96
2019-03-30T02:19:41.938Z,4.93
2019-03-30T02:22:08.159Z,4.92
2019-03-30T02:24:34.411Z,4.92
2019-03-30T02:27:00.535Z,4.92
2019-03-30T02:29:26.885Z,4.88
2019-03-30T02:31:53.054Z,4.80
2019-03-30T02:34:19.249Z,4.72
2019-03-30T02:36:45.441Z,4.71
2019-03-30T02:39:12.037Z,4.63
2019-03-30T02:41:38.222Z,4.58
2019-03-30T02:44:04.456Z,4.53
2019-03-30T02:46:30.594Z,4.49
2019-03-30T02:48:56.924Z,4.44
2019-03-30T02:51:23.033Z,4.40
2019-03-30T02:53:49.270Z,4.40
2019-03-30T02:56:15.390Z,4.42
2019-03-30T02:58:41.626Z,4.50
2019-03-30T03:01:07.899Z,4.57
2019-03-30T03:03:34.060Z,4.63
2019-03-30T03:06:00.333Z,4.68
2019-03-30T03:08:26.470Z,4.78
2019-03-30T03:10:52.746Z,4.79
2019-03-30T03:13:18.859Z,4.82
2019-03-30T03:15:45.080Z,4.86
2019-03-30T03:18:11.287Z,4.89
2019-03-30T03:20:37.584Z,4.90
2019-03-30T03:23:03.779Z,4.86
2019-03-30T03:25:30.051Z,4.82
2019-03-30T03:27:56.313Z,4.84
2019-03-30T03:30:22.695Z,4.85
2019-03-30T03:32:48.899Z,4.86
2019-03-30T03:35:15.051Z,4.88
2019-03-30T03:37:45.472Z,4.87
2019-03-30T03:40:09.576Z,4.87
2019-03-30T03:42:35.829Z,4.88
2019-03-30T03:45:03.941Z,4.86
2019-03-30T03:47:30.180Z,4.83
2019-03-30T03:49:56.306Z,4.84
2019-03-30T03:52:22.743Z,4.81
2019-03-30T03:54:49.742Z,4.77
2019-03-30T03:57:17.908Z,4.74
2019-03-30T03:59:47.631Z,4.74
2019-03-30T04:02:15.836Z,4.74
2019-03-30T04:04:47.376Z,4.75
2019-03-30T04:07:12.529Z,4.75
2019-03-30T04:09:42.498Z,4.72
2019-03-30T04:12:11.769Z,4.71
2019-03-30T04:14:41.844Z,4.69
2019-03-30T04:17:08.584Z,4.67
2019-03-30T04:19:34.728Z,4.64
2019-03-30T04:22:00.888Z,4.67
2019-03-30T04:24:27.068Z,4.67
2019-03-30T04:26:53.250Z,4.67
2019-03-30T04:29:19.406Z,4.62
2019-03-30T04:31:45.687Z,4.62
2019-03-30T04:34:11.931Z,4.66
2019-03-30T04:36:38.403Z,4.67
2019-03-30T04:39:04.890Z,4.61
2019-03-30T04:41:31.281Z,4.61
2019-03-30T04:43:57.577Z,4.67
2019-03-30T04:46:23.722Z,4.65
2019-03-30T04:48:49.953Z,4.61
2019-03-30T04:51:16.065Z,4.59
2019-03-30T04:53:42.285Z,4.58
2019-03-30T04:56:08.426Z,4.59
2019-03-30T04:58:34.661Z,4.63
2019-03-30T05:01:00.840Z,4.63
2019-03-30T05:03:27.004Z,4.62
2019-03-30T05:05:53.266Z,4.61
2019-03-30T05:08:19.543Z,4.65
2019-03-30T05:10:46.941Z,4.69
2019-03-30T05:13:13.180Z,4.77
2019-03-30T05:15:39.288Z,4.85
2019-03-30T05:18:05.521Z,4.85
2019-03-30T05:20:31.708Z,4.90
2019-03-30T05:22:57.985Z,4.94
2019-03-30T05:25:24.221Z,4.93
2019-03-30T05:27:50.376Z,4.92
2019-03-30T05:30:16.764Z,4.86
2019-03-30T05:32:43.010Z,4.91
2019-03-30T05:35:09.399Z,5.00
2019-03-30T05:37:35.561Z,4.99
2019-03-30T05:40:02.511Z,5.02
2019-03-30T05:42:28.870Z,5.07
2019-03-30T05:44:57.791Z,5.09
2019-03-30T05:47:23.381Z,5.15
2019-03-30T05:49:49.663Z,5.19
2019-03-30T05:52:26.349Z,5.17
2019-03-30T05:54:43.989Z,5.19
2019-03-30T05:57:10.249Z,5.23
2019-03-30T05:59:36.432Z,5.23
2019-03-30T06:02:02.692Z,5.28
2019-03-30T06:04:28.875Z,5.25
2019-03-30T06:06:55.150Z,5.27
2019-03-30T06:09:21.293Z,5.29
2019-03-30T06:11:47.541Z,5.25
2019-03-30T06:14:13.719Z,5.31
2019-03-30T06:16:40.043Z,5.42
2019-03-30T06:19:06.210Z,5.47
2019-03-30T06:21:32.542Z,5.53
2019-03-30T06:23:58.878Z,5.56
2019-03-30T06:26:25.254Z,5.63
2019-03-30T06:28:51.425Z,5.66
2019-03-30T06:31:17.725Z,5.67
2019-03-30T06:33:43.871Z,5.67
2019-03-30T06:36:10.242Z,5.71
2019-03-30T06:38:36.491Z,5.77
2019-03-30T06:41:02.937Z,5.81
2019-03-30T06:43:29.183Z,5.81
2019-03-30T06:45:55.538Z,5.85
2019-03-30T06:48:21.799Z,5.92
2019-03-30T06:50:47.930Z,6.00
2019-03-30T06:53:14.247Z,6.03
2019-03-30T06:55:40.500Z,6.08
2019-03-30T06:58:07.944Z,6.22
2019-03-30T07:00:34.679Z,6.30
2019-03-30T07:03:03.574Z,6.37
2019-03-30T07:05:39.783Z,6.47
2019-03-30T07:08:09.878Z,6.59
2019-03-30T07:10:38.471Z,6.68
2019-03-30T07:13:04.875Z,6.78
2019-03-30T07:15:31.440Z,6.92
2019-03-30T07:17:59.450Z,7.10
2019-03-30T07:20:28.892Z,7.24
2019-03-30T07:22:55.373Z,7.33
2019-03-30T07:25:21.548Z,7.38
2019-03-30T07:27:47.706Z,7.47
2019-03-30T07:30:13.982Z,7.56
2019-03-30T07:32:40.255Z,7.67
2019-03-30T07:35:06.564Z,7.73
2019-03-30T07:37:33.816Z,7.82
2019-03-30T07:40:00.343Z,7.93
2019-03-30T07:42:26.545Z,8.00
2019-03-30T07:44:52.997Z,8.08
2019-03-30T07:47:19.292Z,8.15
2019-03-30T07:49:45.661Z,8.22
2019-03-30T07:52:14.613Z,8.31
2019-03-30T07:54:40.956Z,8.36
2019-03-30T07:57:16.525Z,8.47
2019-03-30T07:59:35.363Z,8.62
2019-03-30T08:02:01.538Z,8.74
2019-03-30T08:04:28.825Z,8.77
2019-03-30T08:06:55.132Z,8.88
2019-03-30T08:09:21.349Z,8.96
2019-03-30T08:11:47.572Z,9.04
2019-03-30T08:14:13.823Z,9.09
2019-03-30T08:16:39.986Z,9.18
2019-03-30T08:19:06.363Z,9.34
2019-03-30T08:21:32.663Z,9.45
2019-03-30T08:23:58.947Z,9.59
2019-03-30T08:26:25.237Z,9.69
2019-03-30T08:28:51.494Z,9.81
2019-03-30T08:31:17.714Z,9.97
2019-03-30T08:33:43.917Z,10.13
2019-03-30T08:36:10.735Z,10.25
2019-03-30T08:38:36.914Z,10.36
2019-03-30T08:41:03.164Z,10.47
2019-03-30T08:43:29.343Z,10.57
2019-03-30T08:45:55.715Z,10.66
2019-03-30T08:48:21.928Z,10.79
2019-03-30T08:50:48.230Z,10.88
2019-03-30T08:53:14.490Z,10.97
2019-03-30T08:55:40.764Z,11.15
2019-03-30T08:58:07.051Z,11.30
2019-03-30T09:00:40.958Z,11.37
2019-03-30T09:03:07.647Z,11.45
2019-03-30T09:05:33.925Z,11.61
2019-03-30T09:08:00.041Z,11.70
2019-03-30T09:10:26.840Z,11.77
2019-03-30T09:12:52.992Z,11.92
2019-03-30T09:15:19.508Z,12.04
2019-03-30T09:17:46.684Z,12.24
2019-03-30T09:20:13.286Z,12.42
2019-03-30T09:22:39.724Z,12.56
2019-03-30T09:25:06.590Z,12.78
2019-03-30T09:27:33.719Z,13.03
2019-03-30T09:30:00.355Z,13.30
2019-03-30T09:32:26.743Z,13.62
2019-03-30T09:34:53.346Z,13.88
2019-03-30T09:37:19.657Z,14.10
2019-03-30T09:39:46.044Z,14.32
2019-03-30T09:42:12.616Z,14.45
2019-03-30T09:44:38.840Z,14.58
2019-03-30T09:47:05.375Z,14.71
2019-03-30T09:49:35.458Z,14.90
2019-03-30T09:52:01.851Z,15.18
2019-03-30T09:54:28.171Z,15.41
2019-03-30T09:56:54.493Z,15.62
2019-03-30T09:59:20.715Z,15.79
2019-03-30T10:01:47.188Z,15.97
2019-03-30T10:04:13.525Z,16.16
2019-03-30T10:06:40.876Z,16.26
2019-03-30T10:09:07.276Z,16.42
2019-03-30T10:11:33.686Z,16.55
2019-03-30T10:13:59.870Z,16.76
2019-03-30T10:16:26.114Z,16.98
2019-03-30T10:18:52.237Z,17.26
2019-03-30T10:21:18.477Z,17.44
2019-03-30T10:23:44.646Z,17.51
2019-03-30T10:26:12.049Z,17.72
2019-03-30T10:28:38.409Z,17.80
2019-03-30T10:31:04.642Z,18.01
2019-03-30T10:33:30.802Z,18.15
2019-03-30T10:35:57.133Z,19.05
2019-03-30T10:38:23.321Z,19.05
2019-03-30T10:40:49.632Z,19.41
2019-03-30T10:43:15.974Z,19.75
2019-03-30T10:45:42.276Z,20.31
2019-03-30T10:48:08.577Z,20.76
2019-03-30T10:50:35.029Z,21.38
2019-03-30T10:53:01.342Z,21.97
2019-03-30T10:55:27.595Z,22.60
2019-03-30T10:57:53.866Z,22.98
2019-03-30T11:00:35.749Z,23.56
2019-03-30T11:03:02.277Z,24.20
2019-03-30T11:05:28.585Z,25.19
2019-03-30T11:07:54.697Z,25.57
2019-03-30T11:10:20.935Z,25.91
2019-03-30T11:12:47.057Z,26.36
2019-03-30T11:15:13.299Z,26.83
2019-03-30T11:17:39.563Z,27.11
2019-03-30T11:20:06.267Z,27.39
2019-03-30T11:22:32.669Z,27.70
2019-03-30T11:25:07.530Z,27.73
2019-03-30T11:27:26.948Z,28.17
2019-03-30T11:29:53.136Z,28.93
2019-03-30T11:32:19.320Z,29.01
2019-03-30T11:34:46.456Z,28.96
2019-03-30T11:37:12.911Z,29.46
2019-03-30T11:39:39.078Z,29.32
2019-03-30T11:42:05.242Z,29.60
2019-03-30T11:44:31.587Z,29.86
2019-03-30T11:46:58.009Z,30.08
2019-03-30T11:49:24.166Z,30.65
2019-03-30T11:51:50.531Z,30.70
2019-03-30T11:54:16.959Z,30.86
2019-03-30T11:56:44.214Z,31.02
2019-03-30T11:59:10.445Z,31.36
2019-03-30T12:01:36.602Z,31.64
2019-03-30T12:04:02.899Z,31.55
2019-03-30T12:06:29.065Z,31.99
2019-03-30T12:08:55.240Z,32.62
2019-03-30T12:11:21.412Z,32.85
2019-03-30T12:13:48.088Z,32.68
2019-03-30T12:16:14.433Z,32.54
2019-03-30T12:18:40.594Z,32.42
2019-03-30T12:21:06.954Z,32.37
2019-03-30T12:23:33.075Z,32.22
2019-03-30T12:25:59.321Z,32.30
2019-03-30T12:28:25.457Z,32.48
2019-03-30T12:30:52.425Z,33.00
2019-03-30T12:33:18.708Z,33.05
2019-03-30T12:35:44.884Z,33.24
2019-03-30T12:38:12.460Z,33.78
2019-03-30T12:40:38.836Z,33.65
2019-03-30T12:43:05.008Z,34.05
2019-03-30T12:45:31.332Z,34.32
2019-03-30T12:47:57.916Z,34.30
2019-03-30T12:50:24.110Z,34.57
2019-03-30T12:52:50.283Z,34.20
2019-03-30T12:55:16.693Z,33.87
2019-03-30T12:57:42.848Z,34.06
2019-03-30T13:00:09.427Z,34.26
2019-03-30T13:02:35.770Z,34.35
2019-03-30T13:05:02.383Z,34.48
2019-03-30T13:07:31.211Z,34.40
2019-03-30T13:09:58.541Z,34.44
2019-03-30T13:12:24.685Z,34.71
2019-03-30T13:14:50.910Z,34.49
2019-03-30T13:17:17.019Z,34.67
2019-03-30T13:19:43.264Z,34.17
2019-03-30T13:22:09.378Z,34.06
2019-03-30T13:24:35.607Z,33.88
2019-03-30T13:27:01.707Z,33.89
2019-03-30T13:29:28.052Z,34.19
2019-03-30T13:31:54.151Z,34.20
2019-03-30T13:34:20.667Z,34.51
2019-03-30T13:36:46.904Z,34.10
2019-03-30T13:39:13.473Z,34.01
2019-03-30T13:41:39.652Z,34.33
2019-03-30T13:44:06.400Z,34.19
2019-03-30T13:46:32.609Z,33.78
2019-03-30T13:48:58.968Z,33.96
2019-03-30T13:51:26.146Z,34.51
2019-03-30T13:53:52.499Z,34.54
2019-03-30T13:56:18.716Z,34.62
2019-03-30T13:58:44.975Z,34.57
2019-03-30T14:01:11.201Z,34.82
2019-03-30T14:03:38.594Z,34.63
2019-03-30T14:06:04.759Z,34.97
2019-03-30T14:08:30.922Z,34.72
2019-03-30T14:10:57.406Z,34.37
2019-03-30T14:13:23.627Z,34.30
2019-03-30T14:15:49.805Z,33.71
2019-03-30T14:18:16.062Z,33.73
2019-03-30T14:20:42.391Z,33.53
2019-03-30T14:23:08.620Z,33.41
2019-03-30T14:25:34.867Z,33.32
2019-03-30T14:28:01.326Z,32.37
2019-03-30T14:30:27.683Z,31.93
2019-03-30T14:32:53.965Z,31.99
2019-03-30T14:35:20.184Z,31.84
2019-03-30T14:37:46.538Z,31.06
2019-03-30T14:40:13.422Z,30.04
2019-03-30T14:42:39.702Z,29.18
2019-03-30T14:45:07.216Z,28.53
2019-03-30T14:47:33.501Z,27.98
2019-03-30T14:50:02.283Z,28.35
2019-03-30T14:52:28.721Z,28.61
2019-03-30T14:54:54.978Z,28.81
2019-03-30T14:57:21.164Z,28.63
2019-03-30T14:59:47.376Z,28.32
2019-03-30T15:02:13.548Z,28.14
2019-03-30T15:04:39.809Z,28.31
2019-03-30T15:07:06.187Z,27.92
2019-03-30T15:09:32.486Z,27.00
2019-03-30T15:11:58.724Z,26.28
2019-03-30T15:14:24.869Z,25.54
2019-03-30T15:16:51.099Z,24.79
2019-03-30T15:19:17.291Z,24.27
2019-03-30T15:21:46.546Z,23.87
2019-03-30T15:24:14.794Z,23.46
2019-03-30T15:26:41.079Z,23.21
2019-03-30T15:29:07.618Z,22.91
2019-03-30T15:31:34.234Z,22.63
2019-03-30T15:34:00.400Z,22.62
2019-03-30T15:36:26.630Z,22.57
2019-03-30T15:38:52.804Z,22.16
2019-03-30T15:41:19.069Z,21.79
2019-03-30T15:43:45.197Z,21.43
2019-03-30T15:46:14.229Z,21.07
2019-03-30T15:48:39.732Z,20.76
2019-03-30T15:51:09.520Z,20.54
2019-03-30T15:53:35.892Z,20.33
2019-03-30T15:56:02.249Z,20.09
2019-03-30T15:58:28.485Z,19.85
2019-03-30T16:00:54.842Z,19.58
2019-03-30T16:03:21.067Z,19.20
2019-03-30T16:05:47.269Z,19.20
2019-03-30T16:08:13.574Z,19.10
2019-03-30T16:10:39.734Z,19.01
2019-03-30T16:13:06.133Z,18.87
2019-03-30T16:15:32.346Z,18.79
2019-03-30T16:17:58.623Z,18.70
2019-03-30T16:20:24.999Z,18.64
2019-03-30T16:22:51.549Z,18.53
2019-03-30T16:25:17.834Z,18.44
2019-03-30T16:27:44.173Z,18.35
2019-03-30T16:30:11.057Z,18.31
2019-03-30T16:32:37.285Z,18.21
2019-03-30T16:35:04.055Z,18.12
2019-03-30T16:37:30.310Z,18.07
2019-03-30T16:39:58.369Z,17.98
2019-03-30T16:42:24.575Z,17.90
2019-03-30T16:44:50.783Z,17.76
2019-03-30T16:47:16.967Z,17.66
2019-03-30T16:49:43.201Z,17.59
2019-03-30T16:52:09.307Z,17.52
2019-03-30T16:54:35.507Z,17.42
2019-03-30T16:57:01.616Z,17.35
2019-03-30T16:59:28.215Z,17.25
2019-03-30T17:01:54.518Z,17.17
2019-03-30T17:04:20.820Z,17.04
2019-03-30T17:06:47.304Z,16.94
2019-03-30T17:09:13.714Z,16.86
2019-03-30T17:11:39.886Z,16.81
2019-03-30T17:14:06.172Z,16.67
2019-03-30T17:16:32.496Z,16.50
2019-03-30T17:18:58.716Z,16.31
2019-03-30T17:21:24.828Z,16.20
2019-03-30T17:23:52.567Z,16.03
2019-03-30T17:26:19.082Z,15.88
2019-03-30T17:28:45.294Z,15.76
2019-03-30T17:31:11.641Z,15.63
2019-03-30T17:33:37.922Z,15.48
2019-03-30T17:36:04.419Z,15.29
2019-03-30T17:38:30.649Z,15.09
2019-03-30T17:40:56.935Z,14.90
2019-03-30T17:43:23.193Z,14.75
2019-03-30T17:45:49.412Z,14.57
2019-03-30T17:48:15.744Z,14.40
2019-03-30T17:50:42.128Z,14.24
2019-03-30T17:53:08.294Z,14.09
2019-03-30T17:55:34.676Z,13.95
2019-03-30T17:58:12.342Z,13.82
2019-03-30T18:00:29.381Z,13.68
2019-03-30T18:02:55.538Z,13.55
2019-03-30T18:05:22.858Z,13.40
2019-03-30T18:07:49.083Z,13.29
2019-03-30T18:10:15.744Z,13.21
2019-03-30T18:12:42.002Z,13.15
2019-03-30T18:15:08.770Z,13.10
2019-03-30T18:17:35.064Z,13.03
2019-03-30T18:20:01.602Z,12.95
2019-03-30T18:22:29.156Z,12.87
2019-03-30T18:24:55.357Z,12.79
2019-03-30T18:27:21.661Z,12.71
2019-03-30T18:29:49.047Z,12.66
2019-03-30T18:32:15.423Z,12.58
2019-03-30T18:34:42.160Z,12.53
2019-03-30T18:37:08.929Z,12.46
2019-03-30T18:39:35.137Z,12.44
2019-03-30T18:42:01.360Z,12.38
2019-03-30T18:44:27.592Z,12.37
2019-03-30T18:46:53.766Z,12.40
2019-03-30T18:49:20.078Z,12.38
2019-03-30T18:51:48.238Z,12.38
2019-03-30T18:54:15.448Z,12.43
2019-03-30T18:56:41.595Z,12.45
2019-03-30T18:59:07.920Z,12.38
2019-03-30T19:01:34.513Z,12.29
2019-03-30T19:04:00.833Z,12.25
2019-03-30T19:06:27.078Z,12.25
2019-03-30T19:08:53.309Z,12.22
2019-03-30T19:11:19.614Z,12.16
2019-03-30T19:13:45.955Z,12.11
2019-03-30T19:16:12.189Z,12.08
2019-03-30T19:18:38.464Z,12.03
2019-03-30T19:21:04.570Z,11.97
2019-03-30T19:23:30.882Z,11.92
2019-03-30T19:25:57.205Z,11.85
2019-03-30T19:28:23.548Z,11.78
2019-03-30T19:30:49.857Z,11.74
2019-03-30T19:33:16.143Z,11.69
2019-03-30T19:35:42.414Z,11.64
2019-03-30T19:38:10.931Z,11.57
2019-03-30T19:40:36.656Z,11.52
2019-03-30T19:43:02.937Z,11.46
2019-03-30T19:45:29.559Z,11.46
2019-03-30T19:47:55.757Z,11.39
2019-03-30T19:50:22.076Z,11.35
2019-03-30T19:52:48.174Z,11.27
2019-03-30T19:55:14.518Z,11.18
2019-03-30T19:57:40.619Z,11.13
2019-03-30T20:00:10.133Z,11.12
2019-03-30T20:02:36.424Z,11.11
2019-03-30T20:05:05.143Z,11.06
2019-03-30T20:07:31.630Z,11.00
2019-03-30T20:09:58.851Z,10.94
2019-03-30T20:12:25.349Z,10.87
2019-03-30T20:14:51.648Z,10.81
2019-03-30T20:17:17.873Z,10.79
2019-03-30T20:19:44.003Z,10.71
2019-03-30T20:22:10.293Z,10.64
2019-03-30T20:24:36.456Z,10.60
2019-03-30T20:27:03.323Z,10.57
2019-03-30T20:29:29.493Z,10.52
2019-03-30T20:31:55.676Z,10.52
2019-03-30T20:34:21.934Z,10.52
2019-03-30T20:36:48.164Z,10.46
2019-03-30T20:39:14.275Z,10.43
2019-03-30T20:41:40.778Z,10.40
2019-03-30T20:44:07.465Z,10.36
2019-03-30T20:46:33.586Z,10.35
2019-03-30T20:48:59.806Z,10.30
2019-03-30T20:51:25.936Z,10.23
2019-03-30T20:53:52.167Z,10.19
2019-03-30T20:56:18.302Z,10.11
2019-03-30T20:58:44.520Z,10.07
2019-03-30T21:01:10.680Z,10.07
2019-03-30T21:03:36.952Z,10.02
2019-03-30T21:06:03.414Z,9.98
2019-03-30T21:08:29.653Z,9.96
2019-03-30T21:10:55.767Z,9.98
2019-03-30T21:13:21.983Z,9.96
2019-03-30T21:15:48.096Z,9.94
2019-03-30T21:18:14.343Z,9.90
2019-03-30T21:20:40.450Z,9.90
2019-03-30T21:23:06.667Z,9.94
2019-03-30T21:25:33.865Z,9.92
2019-03-30T21:28:00.653Z,9.92
2019-03-30T21:30:26.858Z,9.88
2019-03-30T21:32:53.078Z,9.80
2019-03-30T21:35:19.186Z,9.71
2019-03-30T21:37:45.390Z,9.65
2019-03-30T21:40:11.492Z,9.63
2019-03-30T21:42:37.722Z,9.60
2019-03-30T21:45:06.070Z,9.58
2019-03-30T21:47:32.360Z,9.61
2019-03-30T21:49:58.661Z,9.59
2019-03-30T21:52:24.895Z,9.54
2019-03-30T21:54:51.010Z,9.49
2019-03-30T21:57:17.216Z,9.46
2019-03-30T21:59:43.370Z,9.48
2019-03-30T22:02:09.600Z,9.42
2019-03-30T22:04:35.745Z,9.42
2019-03-30T22:07:02.111Z,9.42
2019-03-30T22:09:28.833Z,9.42
2019-03-30T22:11:54.992Z,9.44
2019-03-30T22:14:21.444Z,9.42
2019-03-30T22:16:47.741Z,9.37
2019-03-30T22:19:14.019Z,9.30
2019-03-30T22:21:40.137Z,9.29
2019-03-30T22:24:06.372Z,9.34
2019-03-30T22:26:32.467Z,9.30
2019-03-30T22:28:58.674Z,9.29
2019-03-30T22:31:24.804Z,9.24
2019-03-30T22:33:51.033Z,9.23
2019-03-30T22:36:17.260Z,9.28
2019-03-30T22:38:43.451Z,9.31
2019-03-30T22:41:09.642Z,9.27
2019-03-30T22:43:35.792Z,9.24
2019-03-30T22:46:01.962Z,9.13
2019-03-30T22:48:28.061Z,9.16
2019-03-30T22:50:54.266Z,9.16
2019-03-30T22:53:20.400Z,9.03
2019-03-30T22:55:46.507Z,9.05
2019-03-30T22:58:12.707Z,9.04
2019-03-30T23:00:41.087Z,9.06
2019-03-30T23:03:10.061Z,9.03
2019-03-30T23:05:36.329Z,8.95
2019-03-30T23:08:03.671Z,9.00
2019-03-30T23:10:29.926Z,9.03
2019-03-30T23:12:56.091Z,9.02
2019-03-30T23:15:24.206Z,9.01
2019-03-30T23:17:50.452Z,9.02
2019-03-30T23:20:16.646Z,8.98
2019-03-30T23:22:42.802Z,8.94
2019-03-30T23:25:09.260Z,8.94
2019-03-30T23:27:35.646Z,8.93
2019-03-30T23:30:03.396Z,8.90
2019-03-30T23:32:29.693Z,8.88
2019-03-30T23:34:56.155Z,8.92
2019-03-30T23:37:22.571Z,8.94
2019-03-30T23:39:48.689Z,8.92
2019-03-30T23:42:14.952Z,8.83
2019-03-30T23:44:41.272Z,8.84
2019-03-30T23:47:08.635Z,8.88
2019-03-30T23:49:34.869Z,8.87
2019-03-30T23:52:01.056Z,8.89
2019-03-30T23:54:27.225Z,8.89
2019-03-30T23:56:53.403Z,8.89
2019-03-30T23:59:19.581Z,8.92
